sensor_id;sensor_type;location;lat;lon;timestamp;P1;durP1;ratioP1;P2;durP2;ratioP2
38859;SDS011;24609;48.316;16.174;2024-03-29T00:00:40;0.75;;;0.70;;
38859;SDS011;24609;48.316;16.174;2024-03-29T00:03:07;4.97;;;2.28;;
38859;SDS011;24609;48.316;16.174;2024-03-29T00:05:33;3.78;;;1.67;;
38859;SDS011;24609;48.316;16.174;2024-03-29T00:07:59;2.22;;;1.15;;
38859;SDS011;24609;48.316;16.174;2024-03-29T00:10:24;2.58;;;1.27;;
38859;SDS011;24609;48.316;16.174;2024-03-29T00:12:50;1.52;;;1.15;;
38859;SDS011;24609;48.316;16.174;2024-03-29T00:15:16;1.42;;;0.90;;
38859;SDS011;24609;48.316;16.174;2024-03-29T00:17:42;1.08;;;0.82;;
38859;SDS011;24609;48.316;16.174;2024-03-29T00:20:07;1.88;;;0.70;;
38859;SDS011;24609;48.316;16.174;2024-03-29T00:22:33;1.50;;;0.88;;
38859;SDS011;24609;48.316;16.174;2024-03-29T00:24:59;1.05;;;0.80;;
38859;SDS011;24609;48.316;16.174;2024-03-29T00:27:25;2.05;;;0.80;;
38859;SDS011;24609;48.316;16.174;2024-03-29T00:29:53;0.80;;;0.60;;
38859;SDS011;24609;48.316;16.174;2024-03-29T00:32:19;1.17;;;0.80;;
38859;SDS011;24609;48.316;16.174;2024-03-29T00:34:46;3.38;;;0.80;;
38859;SDS011;24609;48.316;16.174;2024-03-29T00:37:14;0.77;;;0.70;;
38859;SDS011;24609;48.316;16.174;2024-03-29T00:39:40;1.35;;;0.80;;
38859;SDS011;24609;48.316;16.174;2024-03-29T00:42:06;0.80;;;0.57;;
38859;SDS011;24609;48.316;16.174;2024-03-29T00:44:34;1.20;;;0.70;;
38859;SDS011;24609;48.316;16.174;2024-03-29T00:47:01;0.85;;;0.50;;
38859;SDS011;24609;48.316;16.174;2024-03-29T00:49:26;1.80;;;0.68;;
38859;SDS011;24609;48.316;16.174;2024-03-29T00:51:52;1.48;;;0.50;;
38859;SDS011;24609;48.316;16.174;2024-03-29T00:54:18;2.53;;;0.68;;
38859;SDS011;24609;48.316;16.174;2024-03-29T00:56:48;0.82;;;0.70;;
38859;SDS011;24609;48.316;16.174;2024-03-29T00:59:14;1.60;;;0.80;;
38859;SDS011;24609;48.316;16.174;2024-03-29T01:01:40;1.10;;;0.80;;
38859;SDS011;24609;48.316;16.174;2024-03-29T01:04:05;1.23;;;0.80;;
38859;SDS011;24609;48.316;16.174;2024-03-29T01:06:31;0.60;;;0.60;;
38859;SDS011;24609;48.316;16.174;2024-03-29T01:08:56;0.82;;;0.60;;
38859;SDS011;24609;48.316;16.174;2024-03-29T01:11:22;0.50;;;0.40;;
38859;SDS011;24609;48.316;16.174;2024-03-29T01:13:48;0.50;;;0.50;;
38859;SDS011;24609;48.316;16.174;2024-03-29T01:16:14;1.15;;;0.65;;
38859;SDS011;24609;48.316;16.174;2024-03-29T01:18:40;1.08;;;0.70;;
38859;SDS011;24609;48.316;16.174;2024-03-29T01:21:08;1.55;;;0.70;;
38859;SDS011;24609;48.316;16.174;2024-03-29T01:23:34;0.80;;;0.68;;
38859;SDS011;24609;48.316;16.174;2024-03-29T01:26:00;0.82;;;0.60;;
38859;SDS011;24609;48.316;16.174;2024-03-29T01:28:25;0.82;;;0.60;;
38859;SDS011;24609;48.316;16.174;2024-03-29T01:30:54;0.95;;;0.60;;
38859;SDS011;24609;48.316;16.174;2024-03-29T01:33:20;1.50;;;0.70;;
38859;SDS011;24609;48.316;16.174;2024-03-29T01:35:46;1.52;;;0.75;;
38859;SDS011;24609;48.316;16.174;2024-03-29T01:38:14;1.00;;;0.90;;
38859;SDS011;24609;48.316;16.174;2024-03-29T01:40:40;1.35;;;1.20;;
38859;SDS011;24609;48.316;16.174;2024-03-29T01:43:05;2.85;;;1.30;;
38859;SDS011;24609;48.316;16.174;2024-03-29T01:45:34;2.88;;;1.20;;
38859;SDS011;24609;48.316;16.174;2024-03-29T01:50:29;1.50;;;1.20;;
38859;SDS011;24609;48.316;16.174;2024-03-29T01:52:55;2.00;;;1.10;;
38859;SDS011;24609;48.316;16.174;2024-03-29T01:55:21;2.50;;;1.40;;
38859;SDS011;24609;48.316;16.174;2024-03-29T01:57:46;1.35;;;1.08;;
38859;SDS011;24609;48.316;16.174;2024-03-29T02:00:12;2.33;;;1.30;;
38859;SDS011;24609;48.316;16.174;2024-03-29T02:02:39;1.05;;;0.90;;
38859;SDS011;24609;48.316;16.174;2024-03-29T02:05:04;0.90;;;0.75;;
38859;SDS011;24609;48.316;16.174;2024-03-29T02:07:30;2.03;;;1.08;;
38859;SDS011;24609;48.316;16.174;2024-03-29T02:09:57;2.10;;;1.20;;
38859;SDS011;24609;48.316;16.174;2024-03-29T02:12:23;1.40;;;1.00;;
38859;SDS011;24609;48.316;16.174;2024-03-29T02:14:48;2.50;;;1.08;;
38859;SDS011;24609;48.316;16.174;2024-03-29T02:17:14;2.40;;;0.93;;
38859;SDS011;24609;48.316;16.174;2024-03-29T02:19:40;2.15;;;1.00;;
38859;SDS011;24609;48.316;16.174;2024-03-29T02:22:05;0.63;;;0.60;;
38859;SDS011;24609;48.316;16.174;2024-03-29T02:24:34;0.95;;;0.80;;
38859;SDS011;24609;48.316;16.174;2024-03-29T02:27:00;2.63;;;1.10;;
38859;SDS011;24609;48.316;16.174;2024-03-29T02:29:26;1.88;;;0.98;;
38859;SDS011;24609;48.316;16.174;2024-03-29T02:31:52;1.80;;;1.45;;
38859;SDS011;24609;48.316;16.174;2024-03-29T02:34:18;1.40;;;0.90;;
38859;SDS011;24609;48.316;16.174;2024-03-29T02:36:44;2.55;;;1.23;;
38859;SDS011;24609;48.316;16.174;2024-03-29T02:39:10;2.08;;;1.50;;
38859;SDS011;24609;48.316;16.174;2024-03-29T02:41:36;1.48;;;1.17;;
38859;SDS011;24609;48.316;16.174;2024-03-29T02:44:02;1.63;;;1.20;;
38859;SDS011;24609;48.316;16.174;2024-03-29T02:46:27;1.38;;;1.20;;
38859;SDS011;24609;48.316;16.174;2024-03-29T02:48:53;1.70;;;1.50;;
38859;SDS011;24609;48.316;16.174;2024-03-29T02:51:19;1.50;;;1.25;;
38859;SDS011;24609;48.316;16.174;2024-03-29T02:53:44;1.60;;;1.20;;
38859;SDS011;24609;48.316;16.174;2024-03-29T02:56:10;2.10;;;1.20;;
38859;SDS011;24609;48.316;16.174;2024-03-29T02:58:36;1.40;;;0.90;;
38859;SDS011;24609;48.316;16.174;2024-03-29T03:01:05;2.88;;;1.23;;
38859;SDS011;24609;48.316;16.174;2024-03-29T03:03:31;1.55;;;1.10;;
38859;SDS011;24609;48.316;16.174;2024-03-29T03:05:57;1.90;;;1.00;;
38859;SDS011;24609;48.316;16.174;2024-03-29T03:08:23;1.08;;;0.73;;
38859;SDS011;24609;48.316;16.174;2024-03-29T03:11:07;1.33;;;0.93;;
38859;SDS011;24609;48.316;16.174;2024-03-29T03:13:33;1.48;;;0.80;;
38859;SDS011;24609;48.316;16.174;2024-03-29T03:15:59;1.05;;;0.70;;
38859;SDS011;24609;48.316;16.174;2024-03-29T03:18:24;1.80;;;0.80;;
38859;SDS011;24609;48.316;16.174;2024-03-29T03:20:53;1.35;;;0.88;;
38859;SDS011;24609;48.316;16.174;2024-03-29T03:23:19;1.73;;;0.80;;
38859;SDS011;24609;48.316;16.174;2024-03-29T03:25:55;1.90;;;0.90;;
38859;SDS011;24609;48.316;16.174;2024-03-29T03:28:25;1.10;;;0.90;;
38859;SDS011;24609;48.316;16.174;2024-03-29T03:30:52;1.45;;;0.90;;
38859;SDS011;24609;48.316;16.174;2024-03-29T03:33:18;0.73;;;0.60;;
38859;SDS011;24609;48.316;16.174;2024-03-29T03:35:44;0.90;;;0.70;;
38859;SDS011;24609;48.316;16.174;2024-03-29T03:38:10;4.10;;;0.90;;
38859;SDS011;24609;48.316;16.174;2024-03-29T03:40:36;1.55;;;0.90;;
38859;SDS011;24609;48.316;16.174;2024-03-29T03:43:03;0.80;;;0.65;;
38859;SDS011;24609;48.316;16.174;2024-03-29T03:45:33;0.90;;;0.73;;
38859;SDS011;24609;48.316;16.174;2024-03-29T03:47:59;1.27;;;0.80;;
38859;SDS011;24609;48.316;16.174;2024-03-29T03:50:25;0.70;;;0.60;;
38859;SDS011;24609;48.316;16.174;2024-03-29T03:52:50;1.10;;;0.77;;
38859;SDS011;24609;48.316;16.174;2024-03-29T03:55:16;0.95;;;0.85;;
38859;SDS011;24609;48.316;16.174;2024-03-29T03:57:42;1.38;;;0.85;;
38859;SDS011;24609;48.316;16.174;2024-03-29T04:00:08;2.08;;;0.63;;
38859;SDS011;24609;48.316;16.174;2024-03-29T04:02:34;1.40;;;0.82;;
38859;SDS011;24609;48.316;16.174;2024-03-29T04:04:59;1.67;;;1.20;;
38859;SDS011;24609;48.316;16.174;2024-03-29T04:07:25;0.95;;;0.80;;
38859;SDS011;24609;48.316;16.174;2024-03-29T04:09:51;1.27;;;1.00;;
38859;SDS011;24609;48.316;16.174;2024-03-29T04:12:17;1.50;;;1.30;;
38859;SDS011;24609;48.316;16.174;2024-03-29T04:14:43;2.63;;;1.13;;
38859;SDS011;24609;48.316;16.174;2024-03-29T04:17:08;1.27;;;1.00;;
38859;SDS011;24609;48.316;16.174;2024-03-29T04:19:34;1.40;;;1.20;;
38859;SDS011;24609;48.316;16.174;2024-03-29T04:22:00;2.15;;;1.45;;
38859;SDS011;24609;48.316;16.174;2024-03-29T04:24:27;1.65;;;1.20;;
38859;SDS011;24609;48.316;16.174;2024-03-29T04:26:53;1.17;;;1.08;;
38859;SDS011;24609;48.316;16.174;2024-03-29T04:29:19;1.73;;;1.20;;
38859;SDS011;24609;48.316;16.174;2024-03-29T04:31:48;1.52;;;1.20;;
38859;SDS011;24609;48.316;16.174;2024-03-29T04:34:13;1.70;;;1.35;;
38859;SDS011;24609;48.316;16.174;2024-03-29T04:36:39;1.70;;;1.20;;
38859;SDS011;24609;48.316;16.174;2024-03-29T04:39:04;1.70;;;1.10;;
38859;SDS011;24609;48.316;16.174;2024-03-29T04:41:30;1.63;;;1.20;;
38859;SDS011;24609;48.316;16.174;2024-03-29T04:43:59;1.58;;;0.85;;
38859;SDS011;24609;48.316;16.174;2024-03-29T04:46:29;1.75;;;1.25;;
38859;SDS011;24609;48.316;16.174;2024-03-29T04:48:55;5.57;;;2.13;;
38859;SDS011;24609;48.316;16.174;2024-03-29T04:51:21;1.40;;;1.10;;
38859;SDS011;24609;48.316;16.174;2024-03-29T04:53:46;1.67;;;1.30;;
38859;SDS011;24609;48.316;16.174;2024-03-29T04:56:12;2.72;;;0.90;;
38859;SDS011;24609;48.316;16.174;2024-03-29T04:58:38;1.15;;;0.93;;
38859;SDS011;24609;48.316;16.174;2024-03-29T05:01:03;2.35;;;1.10;;
38859;SDS011;24609;48.316;16.174;2024-03-29T05:03:29;1.17;;;0.75;;
38859;SDS011;24609;48.316;16.174;2024-03-29T05:05:55;0.80;;;0.70;;
38859;SDS011;24609;48.316;16.174;2024-03-29T05:08:21;0.75;;;0.30;;
38859;SDS011;24609;48.316;16.174;2024-03-29T05:10:50;1.02;;;0.60;;
38859;SDS011;24609;48.316;16.174;2024-03-29T05:13:17;1.17;;;0.60;;
38859;SDS011;24609;48.316;16.174;2024-03-29T05:15:44;1.10;;;1.00;;
38859;SDS011;24609;48.316;16.174;2024-03-29T05:18:11;0.55;;;0.30;;
38859;SDS011;24609;48.316;16.174;2024-03-29T05:20:36;0.63;;;0.30;;
38859;SDS011;24609;48.316;16.174;2024-03-29T05:23:04;0.20;;;0.20;;
38859;SDS011;24609;48.316;16.174;2024-03-29T05:25:30;0.38;;;0.30;;
38859;SDS011;24609;48.316;16.174;2024-03-29T05:27:56;0.93;;;0.30;;
38859;SDS011;24609;48.316;16.174;2024-03-29T05:30:22;0.30;;;0.30;;
38859;SDS011;24609;48.316;16.174;2024-03-29T05:32:49;0.88;;;0.30;;
38859;SDS011;24609;48.316;16.174;2024-03-29T05:35:14;0.32;;;0.30;;
38859;SDS011;24609;48.316;16.174;2024-03-29T05:37:40;0.45;;;0.30;;
38859;SDS011;24609;48.316;16.174;2024-03-29T05:40:07;1.92;;;0.40;;
38859;SDS011;24609;48.316;16.174;2024-03-29T05:42:34;0.63;;;0.30;;
38859;SDS011;24609;48.316;16.174;2024-03-29T05:45:01;0.88;;;0.30;;
38859;SDS011;24609;48.316;16.174;2024-03-29T05:47:27;2.20;;;0.40;;
38859;SDS011;24609;48.316;16.174;2024-03-29T05:49:53;2.42;;;0.60;;
38859;SDS011;24609;48.316;16.174;2024-03-29T05:52:19;2.58;;;0.55;;
38859;SDS011;24609;48.316;16.174;2024-03-29T05:54:46;1.38;;;0.43;;
38859;SDS011;24609;48.316;16.174;2024-03-29T05:57:13;0.80;;;0.40;;
38859;SDS011;24609;48.316;16.174;2024-03-29T05:59:38;0.38;;;0.30;;
38859;SDS011;24609;48.316;16.174;2024-03-29T06:02:04;0.75;;;0.35;;
38859;SDS011;24609;48.316;16.174;2024-03-29T06:04:30;1.83;;;0.45;;
38859;SDS011;24609;48.316;16.174;2024-03-29T06:07:00;0.68;;;0.30;;
38859;SDS011;24609;48.316;16.174;2024-03-29T06:09:29;1.10;;;0.63;;
38859;SDS011;24609;48.316;16.174;2024-03-29T06:11:55;1.10;;;0.45;;
38859;SDS011;24609;48.316;16.174;2024-03-29T06:14:25;0.70;;;0.55;;
38859;SDS011;24609;48.316;16.174;2024-03-29T06:17:09;0.90;;;0.40;;
38859;SDS011;24609;48.316;16.174;2024-03-29T06:19:47;0.75;;;0.25;;
38859;SDS011;24609;48.316;16.174;2024-03-29T06:22:14;0.30;;;0.30;;
38859;SDS011;24609;48.316;16.174;2024-03-29T06:24:41;0.88;;;0.50;;
38859;SDS011;24609;48.316;16.174;2024-03-29T06:27:08;0.45;;;0.30;;
38859;SDS011;24609;48.316;16.174;2024-03-29T06:29:34;0.52;;;0.30;;
38859;SDS011;24609;48.316;16.174;2024-03-29T06:32:00;1.45;;;0.30;;
38859;SDS011;24609;48.316;16.174;2024-03-29T06:34:25;2.55;;;0.50;;
38859;SDS011;24609;48.316;16.174;2024-03-29T06:36:54;0.90;;;0.30;;
38859;SDS011;24609;48.316;16.174;2024-03-29T06:39:19;0.55;;;0.30;;
38859;SDS011;24609;48.316;16.174;2024-03-29T06:41:45;1.35;;;0.45;;
38859;SDS011;24609;48.316;16.174;2024-03-29T06:44:10;0.28;;;0.25;;
38859;SDS011;24609;48.316;16.174;2024-03-29T06:46:36;0.60;;;0.30;;
38859;SDS011;24609;48.316;16.174;2024-03-29T06:49:02;0.90;;;0.30;;
38859;SDS011;24609;48.316;16.174;2024-03-29T06:51:28;0.65;;;0.20;;
38859;SDS011;24609;48.316;16.174;2024-03-29T06:53:53;1.00;;;0.30;;
38859;SDS011;24609;48.316;16.174;2024-03-29T06:56:19;0.52;;;0.30;;
38859;SDS011;24609;48.316;16.174;2024-03-29T06:58:45;0.82;;;0.30;;
38859;SDS011;24609;48.316;16.174;2024-03-29T07:01:11;1.48;;;0.52;;
38859;SDS011;24609;48.316;16.174;2024-03-29T07:03:36;1.30;;;0.63;;
38859;SDS011;24609;48.316;16.174;2024-03-29T07:06:02;1.15;;;0.40;;
38859;SDS011;24609;48.316;16.174;2024-03-29T07:08:28;0.82;;;0.50;;
38859;SDS011;24609;48.316;16.174;2024-03-29T07:11:00;0.90;;;0.40;;
38859;SDS011;24609;48.316;16.174;2024-03-29T07:13:30;0.52;;;0.45;;
38859;SDS011;24609;48.316;16.174;2024-03-29T07:15:56;0.75;;;0.60;;
38859;SDS011;24609;48.316;16.174;2024-03-29T07:18:23;0.90;;;0.43;;
38859;SDS011;24609;48.316;16.174;2024-03-29T07:20:49;1.10;;;0.40;;
38859;SDS011;24609;48.316;16.174;2024-03-29T07:23:15;3.20;;;0.70;;
38859;SDS011;24609;48.316;16.174;2024-03-29T07:25:43;6.97;;;1.02;;
38859;SDS011;24609;48.316;16.174;2024-03-29T07:28:10;2.33;;;0.68;;
38859;SDS011;24609;48.316;16.174;2024-03-29T07:30:39;4.47;;;0.57;;
38859;SDS011;24609;48.316;16.174;2024-03-29T07:33:06;2.35;;;0.63;;
38859;SDS011;24609;48.316;16.174;2024-03-29T07:35:34;4.55;;;0.90;;
38859;SDS011;24609;48.316;16.174;2024-03-29T07:37:59;2.17;;;0.50;;
38859;SDS011;24609;48.316;16.174;2024-03-29T07:40:25;1.15;;;0.57;;
38859;SDS011;24609;48.316;16.174;2024-03-29T07:42:51;1.30;;;0.50;;
38859;SDS011;24609;48.316;16.174;2024-03-29T07:45:16;2.80;;;0.88;;
38859;SDS011;24609;48.316;16.174;2024-03-29T07:47:42;0.55;;;0.40;;
38859;SDS011;24609;48.316;16.174;2024-03-29T07:50:08;1.67;;;0.50;;
38859;SDS011;24609;48.316;16.174;2024-03-29T07:52:35;2.15;;;0.85;;
38859;SDS011;24609;48.316;16.174;2024-03-29T07:55:00;1.88;;;0.80;;
38859;SDS011;24609;48.316;16.174;2024-03-29T07:57:26;1.95;;;0.70;;
38859;SDS011;24609;48.316;16.174;2024-03-29T07:59:52;3.58;;;0.93;;
38859;SDS011;24609;48.316;16.174;2024-03-29T08:02:17;1.58;;;0.90;;
38859;SDS011;24609;48.316;16.174;2024-03-29T08:04:44;1.05;;;0.68;;
38859;SDS011;24609;48.316;16.174;2024-03-29T08:07:09;3.08;;;0.60;;
38859;SDS011;24609;48.316;16.174;2024-03-29T08:09:37;2.08;;;0.80;;
38859;SDS011;24609;48.316;16.174;2024-03-29T08:12:04;2.88;;;1.15;;
38859;SDS011;24609;48.316;16.174;2024-03-29T08:14:30;1.95;;;0.65;;
38859;SDS011;24609;48.316;16.174;2024-03-29T08:16:56;1.92;;;0.88;;
38859;SDS011;24609;48.316;16.174;2024-03-29T08:19:27;1.42;;;0.60;;
38859;SDS011;24609;48.316;16.174;2024-03-29T08:21:53;2.65;;;0.73;;
38859;SDS011;24609;48.316;16.174;2024-03-29T08:24:18;2.30;;;0.90;;
38859;SDS011;24609;48.316;16.174;2024-03-29T08:26:44;3.45;;;1.17;;
38859;SDS011;24609;48.316;16.174;2024-03-29T08:29:10;2.50;;;0.70;;
38859;SDS011;24609;48.316;16.174;2024-03-29T08:31:36;2.30;;;1.02;;
38859;SDS011;24609;48.316;16.174;2024-03-29T08:34:01;1.77;;;0.70;;
38859;SDS011;24609;48.316;16.174;2024-03-29T08:36:27;3.35;;;1.00;;
38859;SDS011;24609;48.316;16.174;2024-03-29T08:38:53;2.92;;;0.50;;
38859;SDS011;24609;48.316;16.174;2024-03-29T08:41:18;1.83;;;0.88;;
38859;SDS011;24609;48.316;16.174;2024-03-29T08:43:44;2.03;;;0.80;;
38859;SDS011;24609;48.316;16.174;2024-03-29T08:46:11;2.85;;;1.00;;
38859;SDS011;24609;48.316;16.174;2024-03-29T08:48:37;1.52;;;0.70;;
38859;SDS011;24609;48.316;16.174;2024-03-29T08:51:05;2.05;;;0.70;;
38859;SDS011;24609;48.316;16.174;2024-03-29T08:53:30;1.80;;;0.60;;
38859;SDS011;24609;48.316;16.174;2024-03-29T08:55:56;6.05;;;1.20;;
38859;SDS011;24609;48.316;16.174;2024-03-29T08:58:22;1.55;;;0.68;;
38859;SDS011;24609;48.316;16.174;2024-03-29T09:00:52;1.67;;;1.00;;
38859;SDS011;24609;48.316;16.174;2024-03-29T09:03:19;4.43;;;1.02;;
38859;SDS011;24609;48.316;16.174;2024-03-29T09:05:45;2.47;;;1.05;;
38859;SDS011;24609;48.316;16.174;2024-03-29T09:08:11;3.60;;;0.90;;
38859;SDS011;24609;48.316;16.174;2024-03-29T09:10:36;3.15;;;1.05;;
38859;SDS011;24609;48.316;16.174;2024-03-29T09:13:02;2.22;;;0.70;;
38859;SDS011;24609;48.316;16.174;2024-03-29T09:15:28;2.00;;;0.70;;
38859;SDS011;24609;48.316;16.174;2024-03-29T09:17:53;1.33;;;0.60;;
38859;SDS011;24609;48.316;16.174;2024-03-29T09:20:20;2.75;;;0.75;;
38859;SDS011;24609;48.316;16.174;2024-03-29T09:22:45;4.07;;;0.82;;
38859;SDS011;24609;48.316;16.174;2024-03-29T09:25:11;4.63;;;1.42;;
38859;SDS011;24609;48.316;16.174;2024-03-29T09:27:39;2.17;;;0.80;;
38859;SDS011;24609;48.316;16.174;2024-03-29T09:30:07;10.73;;;1.20;;
38859;SDS011;24609;48.316;16.174;2024-03-29T09:32:37;3.75;;;1.00;;
38859;SDS011;24609;48.316;16.174;2024-03-29T09:35:02;2.72;;;0.88;;
38859;SDS011;24609;48.316;16.174;2024-03-29T09:37:28;3.88;;;1.20;;
38859;SDS011;24609;48.316;16.174;2024-03-29T09:39:54;1.98;;;1.00;;
38859;SDS011;24609;48.316;16.174;2024-03-29T09:42:21;3.40;;;0.90;;
38859;SDS011;24609;48.316;16.174;2024-03-29T09:44:50;2.42;;;0.82;;
38859;SDS011;24609;48.316;16.174;2024-03-29T09:47:17;4.80;;;1.20;;
38859;SDS011;24609;48.316;16.174;2024-03-29T09:49:44;3.15;;;0.77;;
38859;SDS011;24609;48.316;16.174;2024-03-29T09:52:12;2.63;;;0.82;;
38859;SDS011;24609;48.316;16.174;2024-03-29T09:54:38;2.33;;;0.80;;
38859;SDS011;24609;48.316;16.174;2024-03-29T09:57:05;3.17;;;0.80;;
38859;SDS011;24609;48.316;16.174;2024-03-29T09:59:30;2.72;;;0.90;;
38859;SDS011;24609;48.316;16.174;2024-03-29T10:01:56;2.75;;;1.00;;
38859;SDS011;24609;48.316;16.174;2024-03-29T10:04:25;2.55;;;0.93;;
38859;SDS011;24609;48.316;16.174;2024-03-29T10:06:52;5.20;;;0.88;;
38859;SDS011;24609;48.316;16.174;2024-03-29T10:09:19;2.67;;;0.90;;
38859;SDS011;24609;48.316;16.174;2024-03-29T10:11:45;2.55;;;0.98;;
38859;SDS011;24609;48.316;16.174;2024-03-29T10:14:12;4.40;;;1.15;;
38859;SDS011;24609;48.316;16.174;2024-03-29T10:16:38;3.05;;;0.70;;
38859;SDS011;24609;48.316;16.174;2024-03-29T10:19:04;2.40;;;0.82;;
38859;SDS011;24609;48.316;16.174;2024-03-29T10:21:31;2.40;;;1.00;;
38859;SDS011;24609;48.316;16.174;2024-03-29T10:23:58;2.75;;;0.90;;
38859;SDS011;24609;48.316;16.174;2024-03-29T10:26:24;2.65;;;0.82;;
38859;SDS011;24609;48.316;16.174;2024-03-29T10:28:50;3.80;;;0.90;;
38859;SDS011;24609;48.316;16.174;2024-03-29T10:31:17;1.63;;;0.90;;
38859;SDS011;24609;48.316;16.174;2024-03-29T10:33:43;2.33;;;0.82;;
38859;SDS011;24609;48.316;16.174;2024-03-29T10:36:09;2.63;;;0.90;;
38859;SDS011;24609;48.316;16.174;2024-03-29T10:38:37;3.35;;;0.90;;
38859;SDS011;24609;48.316;16.174;2024-03-29T10:41:03;5.07;;;1.08;;
38859;SDS011;24609;48.316;16.174;2024-03-29T10:43:31;4.15;;;1.15;;
38859;SDS011;24609;48.316;16.174;2024-03-29T10:45:58;5.70;;;1.17;;
38859;SDS011;24609;48.316;16.174;2024-03-29T10:48:26;6.72;;;1.50;;
38859;SDS011;24609;48.316;16.174;2024-03-29T10:50:55;3.50;;;0.90;;
38859;SDS011;24609;48.316;16.174;2024-03-29T10:53:22;4.97;;;1.20;;
38859;SDS011;24609;48.316;16.174;2024-03-29T10:55:51;3.13;;;0.90;;
38859;SDS011;24609;48.316;16.174;2024-03-29T10:58:20;2.70;;;0.73;;
38859;SDS011;24609;48.316;16.174;2024-03-29T11:00:49;2.95;;;1.02;;
38859;SDS011;24609;48.316;16.174;2024-03-29T11:05:54;2.20;;;0.90;;
38859;SDS011;24609;48.316;16.174;2024-03-29T11:08:26;2.67;;;0.82;;
38859;SDS011;24609;48.316;16.174;2024-03-29T11:10:57;5.35;;;0.80;;
38859;SDS011;24609;48.316;16.174;2024-03-29T11:16:08;3.22;;;0.90;;
38859;SDS011;24609;48.316;16.174;2024-03-29T11:18:35;3.60;;;1.00;;
38859;SDS011;24609;48.316;16.174;2024-03-29T11:21:02;4.20;;;1.10;;
38859;SDS011;24609;48.316;16.174;2024-03-29T11:23:33;1.50;;;0.70;;
38859;SDS011;24609;48.316;16.174;2024-03-29T11:26:06;3.36;;;1.04;;
38859;SDS011;24609;48.316;16.174;2024-03-29T11:28:33;1.80;;;0.88;;
38859;SDS011;24609;48.316;16.174;2024-03-29T11:31:03;2.08;;;0.80;;
38859;SDS011;24609;48.316;16.174;2024-03-29T11:35:57;2.35;;;0.90;;
38859;SDS011;24609;48.316;16.174;2024-03-29T11:38:45;2.97;;;1.13;;
38859;SDS011;24609;48.316;16.174;2024-03-29T11:41:13;2.83;;;1.05;;
38859;SDS011;24609;48.316;16.174;2024-03-29T11:43:40;4.72;;;0.93;;
38859;SDS011;24609;48.316;16.174;2024-03-29T11:46:17;2.95;;;1.08;;
38859;SDS011;24609;48.316;16.174;2024-03-29T11:48:44;4.43;;;1.00;;
38859;SDS011;24609;48.316;16.174;2024-03-29T11:51:19;3.63;;;1.00;;
38859;SDS011;24609;48.316;16.174;2024-03-29T11:53:47;2.65;;;1.00;;
38859;SDS011;24609;48.316;16.174;2024-03-29T11:56:15;3.03;;;0.98;;
38859;SDS011;24609;48.316;16.174;2024-03-29T11:58:41;4.90;;;1.02;;
38859;SDS011;24609;48.316;16.174;2024-03-29T12:01:07;4.50;;;1.10;;
38859;SDS011;24609;48.316;16.174;2024-03-29T12:03:39;5.45;;;1.55;;
38859;SDS011;24609;48.316;16.174;2024-03-29T12:06:06;3.92;;;1.15;;
38859;SDS011;24609;48.316;16.174;2024-03-29T12:08:32;3.40;;;1.17;;
38859;SDS011;24609;48.316;16.174;2024-03-29T12:11:00;7.13;;;1.30;;
38859;SDS011;24609;48.316;16.174;2024-03-29T12:13:27;2.55;;;1.20;;
38859;SDS011;24609;48.316;16.174;2024-03-29T12:15:53;2.63;;;1.20;;
38859;SDS011;24609;48.316;16.174;2024-03-29T12:18:19;2.72;;;1.25;;
38859;SDS011;24609;48.316;16.174;2024-03-29T12:20:46;2.75;;;1.00;;
38859;SDS011;24609;48.316;16.174;2024-03-29T12:23:14;3.15;;;1.27;;
38859;SDS011;24609;48.316;16.174;2024-03-29T12:25:42;3.45;;;1.30;;
38859;SDS011;24609;48.316;16.174;2024-03-29T12:28:08;3.47;;;1.13;;
38859;SDS011;24609;48.316;16.174;2024-03-29T12:30:35;4.72;;;1.08;;
38859;SDS011;24609;48.316;16.174;2024-03-29T12:33:06;2.15;;;0.80;;
38859;SDS011;24609;48.316;16.174;2024-03-29T12:35:36;1.80;;;1.10;;
38859;SDS011;24609;48.316;16.174;2024-03-29T12:38:03;5.90;;;1.20;;
38859;SDS011;24609;48.316;16.174;2024-03-29T12:40:31;2.80;;;0.90;;
38859;SDS011;24609;48.316;16.174;2024-03-29T12:43:01;3.78;;;1.20;;
38859;SDS011;24609;48.316;16.174;2024-03-29T12:45:28;2.08;;;0.98;;
38859;SDS011;24609;48.316;16.174;2024-03-29T12:47:54;3.75;;;1.08;;
38859;SDS011;24609;48.316;16.174;2024-03-29T12:50:29;2.40;;;1.05;;
38859;SDS011;24609;48.316;16.174;2024-03-29T12:52:57;2.30;;;1.13;;
38859;SDS011;24609;48.316;16.174;2024-03-29T12:55:24;2.92;;;1.08;;
38859;SDS011;24609;48.316;16.174;2024-03-29T12:57:55;3.15;;;1.00;;
38859;SDS011;24609;48.316;16.174;2024-03-29T13:00:21;3.13;;;0.82;;
38859;SDS011;24609;48.316;16.174;2024-03-29T13:02:47;3.30;;;1.05;;
38859;SDS011;24609;48.316;16.174;2024-03-29T13:05:14;3.05;;;0.80;;
38859;SDS011;24609;48.316;16.174;2024-03-29T13:07:40;3.00;;;1.15;;
38859;SDS011;24609;48.316;16.174;2024-03-29T13:10:06;5.25;;;1.92;;
38859;SDS011;24609;48.316;16.174;2024-03-29T13:12:36;6.43;;;1.65;;
38859;SDS011;24609;48.316;16.174;2024-03-29T13:15:03;3.00;;;1.40;;
38859;SDS011;24609;48.316;16.174;2024-03-29T13:17:48;3.70;;;1.10;;
38859;SDS011;24609;48.316;16.174;2024-03-29T13:20:15;6.05;;;1.20;;
38859;SDS011;24609;48.316;16.174;2024-03-29T13:22:41;4.30;;;1.05;;
38859;SDS011;24609;48.316;16.174;2024-03-29T13:27:39;3.20;;;0.90;;
38859;SDS011;24609;48.316;16.174;2024-03-29T13:30:05;3.90;;;1.17;;
38859;SDS011;24609;48.316;16.174;2024-03-29T13:32:32;4.03;;;1.23;;
38859;SDS011;24609;48.316;16.174;2024-03-29T13:34:59;1.80;;;0.95;;
38859;SDS011;24609;48.316;16.174;2024-03-29T13:37:25;3.25;;;0.95;;
38859;SDS011;24609;48.316;16.174;2024-03-29T13:39:54;3.78;;;1.15;;
38859;SDS011;24609;48.316;16.174;2024-03-29T13:42:20;2.53;;;0.95;;
38859;SDS011;24609;48.316;16.174;2024-03-29T13:44:49;1.67;;;0.80;;
38859;SDS011;24609;48.316;16.174;2024-03-29T13:47:15;3.17;;;1.00;;
38859;SDS011;24609;48.316;16.174;2024-03-29T13:49:42;3.15;;;0.80;;
38859;SDS011;24609;48.316;16.174;2024-03-29T13:52:09;1.75;;;0.60;;
38859;SDS011;24609;48.316;16.174;2024-03-29T13:54:35;1.45;;;0.70;;
38859;SDS011;24609;48.316;16.174;2024-03-29T13:57:01;1.70;;;0.75;;
38859;SDS011;24609;48.316;16.174;2024-03-29T13:59:29;3.33;;;0.88;;
38859;SDS011;24609;48.316;16.174;2024-03-29T14:01:55;2.25;;;0.80;;
38859;SDS011;24609;48.316;16.174;2024-03-29T14:04:21;3.80;;;0.70;;
38859;SDS011;24609;48.316;16.174;2024-03-29T14:06:48;2.10;;;0.80;;
38859;SDS011;24609;48.316;16.174;2024-03-29T14:09:14;4.28;;;0.82;;
38859;SDS011;24609;48.316;16.174;2024-03-29T14:11:39;2.15;;;0.70;;
38859;SDS011;24609;48.316;16.174;2024-03-29T14:14:05;1.08;;;0.60;;
38859;SDS011;24609;48.316;16.174;2024-03-29T14:16:33;2.20;;;1.10;;
38859;SDS011;24609;48.316;16.174;2024-03-29T14:18:58;2.47;;;0.93;;
38859;SDS011;24609;48.316;16.174;2024-03-29T14:21:24;3.22;;;0.70;;
38859;SDS011;24609;48.316;16.174;2024-03-29T14:23:50;3.08;;;1.10;;
38859;SDS011;24609;48.316;16.174;2024-03-29T14:26:15;1.92;;;0.80;;
38859;SDS011;24609;48.316;16.174;2024-03-29T14:28:41;1.48;;;0.70;;
38859;SDS011;24609;48.316;16.174;2024-03-29T14:31:07;3.67;;;0.90;;
38859;SDS011;24609;48.316;16.174;2024-03-29T14:33:33;1.60;;;0.93;;
38859;SDS011;24609;48.316;16.174;2024-03-29T14:35:59;1.95;;;0.80;;
38859;SDS011;24609;48.316;16.174;2024-03-29T14:38:24;2.65;;;0.95;;
38859;SDS011;24609;48.316;16.174;2024-03-29T14:40:50;1.95;;;0.90;;
38859;SDS011;24609;48.316;16.174;2024-03-29T14:43:16;6.07;;;0.95;;